sensor_id;sensor_type;location;lat;lon;timestamp;P1;durP1;ratioP1;P2;durP2;ratioP2
77276;SDS011;66330;52.166;9.978;2023-03-21T00:00:29;14.63;;;13.13;;
77276;SDS011;66330;52.166;9.978;2023-03-21T00:02:55;15.33;;;13.00;;
77276;SDS011;66330;52.166;9.978;2023-03-21T00:05:21;15.03;;;13.50;;
77276;SDS011;66330;52.166;9.978;2023-03-21T00:07:46;14.27;;;12.87;;
77276;SDS011;66330;52.166;9.978;2023-03-21T00:10:12;16.60;;;13.20;;
77276;SDS011;66330;52.166;9.978;2023-03-21T00:12:38;14.90;;;13.60;;
77276;SDS011;66330;52.166;9.978;2023-03-21T00:15:04;14.90;;;13.50;;
77276;SDS011;66330;52.166;9.978;2023-03-21T00:17:31;16.27;;;13.60;;
77276;SDS011;66330;52.166;9.978;2023-03-21T00:19:58;14.20;;;12.80;;
77276;SDS011;66330;52.166;9.978;2023-03-21T00:22:24;14.83;;;13.40;;
77276;SDS011;66330;52.166;9.978;2023-03-21T00:24:51;15.70;;;14.20;;
77276;SDS011;66330;52.166;9.978;2023-03-21T00:27:17;14.03;;;12.73;;
77276;SDS011;66330;52.166;9.978;2023-03-21T00:29:46;14.23;;;12.87;;
77276;SDS011;66330;52.166;9.978;2023-03-21T00:32:13;13.93;;;12.53;;
77276;SDS011;66330;52.166;9.978;2023-03-21T00:34:43;14.13;;;12.73;;
77276;SDS011;66330;52.166;9.978;2023-03-21T00:37:09;15.70;;;14.00;;
77276;SDS011;66330;52.166;9.978;2023-03-21T00:39:41;14.70;;;13.20;;
77276;SDS011;66330;52.166;9.978;2023-03-21T00:42:08;15.30;;;13.50;;
77276;SDS011;66330;52.166;9.978;2023-03-21T00:44:33;13.70;;;12.40;;
77276;SDS011;66330;52.166;9.978;2023-03-21T00:47:03;15.20;;;13.27;;
77276;SDS011;66330;52.166;9.978;2023-03-21T00:49:30;13.53;;;12.07;;
77276;SDS011;66330;52.166;9.978;2023-03-21T00:51:58;14.90;;;13.03;;
77276;SDS011;66330;52.166;9.978;2023-03-21T00:54:25;13.50;;;12.20;;
77276;SDS011;66330;52.166;9.978;2023-03-21T00:56:51;13.00;;;11.80;;
77276;SDS011;66330;52.166;9.978;2023-03-21T00:59:16;12.77;;;11.63;;
77276;SDS011;66330;52.166;9.978;2023-03-21T01:01:42;11.97;;;10.87;;
77276;SDS011;66330;52.166;9.978;2023-03-21T01:04:10;13.43;;;12.10;;
77276;SDS011;66330;52.166;9.978;2023-03-21T01:06:39;13.30;;;12.10;;
77276;SDS011;66330;52.166;9.978;2023-03-21T01:09:06;14.27;;;12.73;;
77276;SDS011;66330;52.166;9.978;2023-03-21T01:11:37;12.80;;;11.53;;
77276;SDS011;66330;52.166;9.978;2023-03-21T01:14:02;16.20;;;11.30;;
77276;SDS011;66330;52.166;9.978;2023-03-21T01:16:28;12.90;;;11.60;;
77276;SDS011;66330;52.166;9.978;2023-03-21T01:18:54;12.50;;;11.20;;
77276;SDS011;66330;52.166;9.978;2023-03-21T01:21:20;13.10;;;11.47;;
77276;SDS011;66330;52.166;9.978;2023-03-21T01:23:46;14.27;;;11.97;;
77276;SDS011;66330;52.166;9.978;2023-03-21T01:26:13;12.43;;;11.10;;
77276;SDS011;66330;52.166;9.978;2023-03-21T01:28:40;12.60;;;11.33;;
77276;SDS011;66330;52.166;9.978;2023-03-21T01:31:06;12.40;;;11.20;;
77276;SDS011;66330;52.166;9.978;2023-03-21T01:33:33;14.83;;;12.13;;
77276;SDS011;66330;52.166;9.978;2023-03-21T01:35:59;13.80;;;10.87;;
77276;SDS011;66330;52.166;9.978;2023-03-21T01:38:25;14.17;;;11.40;;
77276;SDS011;66330;52.166;9.978;2023-03-21T01:40:51;14.70;;;12.10;;
77276;SDS011;66330;52.166;9.978;2023-03-21T01:48:25;13.17;;;11.97;;
77276;SDS011;66330;52.166;9.978;2023-03-21T01:50:52;14.70;;;11.97;;
77276;SDS011;66330;52.166;9.978;2023-03-21T01:53:21;13.77;;;12.37;;
77276;SDS011;66330;52.166;9.978;2023-03-21T01:55:53;14.47;;;12.80;;
77276;SDS011;66330;52.166;9.978;2023-03-21T01:58:25;13.20;;;11.90;;
77276;SDS011;66330;52.166;9.978;2023-03-21T02:00:51;13.70;;;12.30;;
77276;SDS011;66330;52.166;9.978;2023-03-21T02:03:20;14.33;;;12.70;;
77276;SDS011;66330;52.166;9.978;2023-03-21T02:06:08;13.43;;;12.00;;
77276;SDS011;66330;52.166;9.978;2023-03-21T02:08:35;13.90;;;12.40;;
77276;SDS011;66330;52.166;9.978;2023-03-21T02:11:01;13.73;;;12.43;;
77276;SDS011;66330;52.166;9.978;2023-03-21T02:13:28;15.47;;;13.87;;
77276;SDS011;66330;52.166;9.978;2023-03-21T02:15:57;16.00;;;13.03;;
77276;SDS011;66330;52.166;9.978;2023-03-21T02:18:37;15.23;;;12.33;;
77276;SDS011;66330;52.166;9.978;2023-03-21T02:27:24;15.20;;;12.33;;
77276;SDS011;66330;52.166;9.978;2023-03-21T02:32:45;14.13;;;12.57;;
77276;SDS011;66330;52.166;9.978;2023-03-21T02:38:07;15.03;;;12.50;;
77276;SDS011;66330;52.166;9.978;2023-03-21T02:40:44;14.57;;;12.37;;
77276;SDS011;66330;52.166;9.978;2023-03-21T02:43:21;13.60;;;12.20;;
77276;SDS011;66330;52.166;9.978;2023-03-21T02:46:05;18.13;;;13.23;;
77276;SDS011;66330;52.166;9.978;2023-03-21T02:49:05;18.30;;;13.20;;
77276;SDS011;66330;52.166;9.978;2023-03-21T02:51:34;13.77;;;12.37;;
77276;SDS011;66330;52.166;9.978;2023-03-21T02:54:03;15.43;;;13.83;;
77276;SDS011;66330;52.166;9.978;2023-03-21T02:56:33;13.97;;;12.57;;
77276;SDS011;66330;52.166;9.978;2023-03-21T02:59:00;18.23;;;14.13;;
77276;SDS011;66330;52.166;9.978;2023-03-21T03:01:29;14.83;;;13.30;;
77276;SDS011;66330;52.166;9.978;2023-03-21T03:03:56;16.07;;;14.33;;
77276;SDS011;66330;52.166;9.978;2023-03-21T03:06:23;19.30;;;14.37;;
77276;SDS011;66330;52.166;9.978;2023-03-21T03:12:25;15.67;;;13.23;;
77276;SDS011;66330;52.166;9.978;2023-03-21T03:15:00;14.50;;;13.00;;
77276;SDS011;66330;52.166;9.978;2023-03-21T03:26:07;15.90;;;13.50;;
77276;SDS011;66330;52.166;9.978;2023-03-21T03:28:40;15.73;;;14.17;;
77276;SDS011;66330;52.166;9.978;2023-03-21T03:31:10;14.83;;;12.53;;
77276;SDS011;66330;52.166;9.978;2023-03-21T03:33:39;16.70;;;13.57;;
77276;SDS011;66330;52.166;9.978;2023-03-21T03:36:10;14.97;;;13.27;;
77276;SDS011;66330;52.166;9.978;2023-03-21T03:38:38;14.63;;;12.33;;
77276;SDS011;66330;52.166;9.978;2023-03-21T03:41:13;14.60;;;13.17;;
77276;SDS011;66330;52.166;9.978;2023-03-21T03:43:47;15.43;;;13.80;;
77276;SDS011;66330;52.166;9.978;2023-03-21T03:46:25;14.67;;;13.20;;
77276;SDS011;66330;52.166;9.978;2023-03-21T03:48:59;13.83;;;12.10;;
77276;SDS011;66330;52.166;9.978;2023-03-21T03:51:34;15.90;;;14.30;;
77276;SDS011;66330;52.166;9.978;2023-03-21T03:54:05;15.70;;;14.10;;
77276;SDS011;66330;52.166;9.978;2023-03-21T03:56:37;16.27;;;14.67;;
77276;SDS011;66330;52.166;9.978;2023-03-21T03:59:03;16.27;;;14.60;;
77276;SDS011;66330;52.166;9.978;2023-03-21T04:01:31;15.80;;;13.97;;
77276;SDS011;66330;52.166;9.978;2023-03-21T04:03:58;16.20;;;14.60;;
77276;SDS011;66330;52.166;9.978;2023-03-21T04:06:24;17.37;;;14.77;;
77276;SDS011;66330;52.166;9.978;2023-03-21T04:08:52;16.43;;;14.83;;
77276;SDS011;66330;52.166;9.978;2023-03-21T04:11:20;15.17;;;13.57;;
77276;SDS011;66330;52.166;9.978;2023-03-21T04:13:46;16.97;;;15.20;;
77276;SDS011;66330;52.166;9.978;2023-03-21T04:16:11;19.10;;;14.80;;
77276;SDS011;66330;52.166;9.978;2023-03-21T04:18:38;16.30;;;14.60;;
77276;SDS011;66330;52.166;9.978;2023-03-21T04:21:11;16.30;;;14.50;;
77276;SDS011;66330;52.166;9.978;2023-03-21T04:23:38;16.03;;;14.40;;
77276;SDS011;66330;52.166;9.978;2023-03-21T04:26:04;18.33;;;16.03;;
77276;SDS011;66330;52.166;9.978;2023-03-21T04:28:31;18.40;;;16.60;;
77276;SDS011;66330;52.166;9.978;2023-03-21T04:30:57;16.70;;;15.07;;
77276;SDS011;66330;52.166;9.978;2023-03-21T04:33:23;19.90;;;15.47;;
77276;SDS011;66330;52.166;9.978;2023-03-21T04:35:56;16.70;;;15.03;;
77276;SDS011;66330;52.166;9.978;2023-03-21T04:38:23;17.53;;;15.20;;
77276;SDS011;66330;52.166;9.978;2023-03-21T04:40:54;19.50;;;14.87;;
77276;SDS011;66330;52.166;9.978;2023-03-21T04:43:20;16.50;;;15.00;;
77276;SDS011;66330;52.166;9.978;2023-03-21T04:45:48;16.03;;;14.43;;
77276;SDS011;66330;52.166;9.978;2023-03-21T04:48:14;18.20;;;14.60;;
77276;SDS011;66330;52.166;9.978;2023-03-21T04:50:41;17.57;;;15.80;;
77276;SDS011;66330;52.166;9.978;2023-03-21T04:53:08;15.93;;;14.30;;
77276;SDS011;66330;52.166;9.978;2023-03-21T04:55:33;17.60;;;14.33;;
77276;SDS011;66330;52.166;9.978;2023-03-21T04:58:00;17.93;;;14.77;;
77276;SDS011;66330;52.166;9.978;2023-03-21T05:00:27;16.63;;;14.80;;
77276;SDS011;66330;52.166;9.978;2023-03-21T05:02:52;17.53;;;15.10;;
77276;SDS011;66330;52.166;9.978;2023-03-21T05:05:18;18.37;;;15.23;;
77276;SDS011;66330;52.166;9.978;2023-03-21T05:07:43;17.93;;;15.80;;
77276;SDS011;66330;52.166;9.978;2023-03-21T05:10:10;16.90;;;14.77;;
77276;SDS011;66330;52.166;9.978;2023-03-21T05:12:37;17.50;;;15.10;;
77276;SDS011;66330;52.166;9.978;2023-03-21T05:15:03;22.70;;;16.20;;
77276;SDS011;66330;52.166;9.978;2023-03-21T05:17:29;20.47;;;16.83;;
77276;SDS011;66330;52.166;9.978;2023-03-21T05:19:55;16.30;;;14.70;;
77276;SDS011;66330;52.166;9.978;2023-03-21T05:22:21;18.00;;;15.60;;
77276;SDS011;66330;52.166;9.978;2023-03-21T05:24:48;17.80;;;16.00;;
77276;SDS011;66330;52.166;9.978;2023-03-21T05:27:18;17.67;;;15.77;;
77276;SDS011;66330;52.166;9.978;2023-03-21T05:29:58;18.10;;;16.00;;
77276;SDS011;66330;52.166;9.978;2023-03-21T05:32:32;18.90;;;16.17;;
77276;SDS011;66330;52.166;9.978;2023-03-21T05:34:58;17.60;;;14.90;;
77276;SDS011;66330;52.166;9.978;2023-03-21T05:37:23;16.10;;;14.40;;
77276;SDS011;66330;52.166;9.978;2023-03-21T05:39:49;16.50;;;14.37;;
77276;SDS011;66330;52.166;9.978;2023-03-21T05:42:15;17.17;;;14.00;;
77276;SDS011;66330;52.166;9.978;2023-03-21T05:44:42;14.53;;;12.83;;
77276;SDS011;66330;52.166;9.978;2023-03-21T05:47:09;14.50;;;13.10;;
77276;SDS011;66330;52.166;9.978;2023-03-21T05:49:35;19.40;;;15.13;;
77276;SDS011;66330;52.166;9.978;2023-03-21T05:52:01;17.17;;;13.83;;
77276;SDS011;66330;52.166;9.978;2023-03-21T05:54:26;14.83;;;12.90;;
77276;SDS011;66330;52.166;9.978;2023-03-21T05:56:52;18.57;;;14.80;;
77276;SDS011;66330;52.166;9.978;2023-03-21T05:59:17;16.77;;;14.53;;
77276;SDS011;66330;52.166;9.978;2023-03-21T06:01:43;16.20;;;13.30;;
77276;SDS011;66330;52.166;9.978;2023-03-21T06:04:08;16.70;;;12.57;;
77276;SDS011;66330;52.166;9.978;2023-03-21T06:06:34;18.10;;;13.30;;
77276;SDS011;66330;52.166;9.978;2023-03-21T06:09:00;18.83;;;12.87;;
77276;SDS011;66330;52.166;9.978;2023-03-21T06:11:27;14.07;;;12.40;;
77276;SDS011;66330;52.166;9.978;2023-03-21T06:13:55;13.40;;;11.40;;
77276;SDS011;66330;52.166;9.978;2023-03-21T06:16:20;15.77;;;12.70;;
77276;SDS011;66330;52.166;9.978;2023-03-21T06:18:46;15.07;;;11.93;;
77276;SDS011;66330;52.166;9.978;2023-03-21T06:21:12;15.47;;;11.33;;
77276;SDS011;66330;52.166;9.978;2023-03-21T06:23:38;13.40;;;12.00;;
77276;SDS011;66330;52.166;9.978;2023-03-21T06:26:03;13.73;;;12.30;;
77276;SDS011;66330;52.166;9.978;2023-03-21T06:28:30;18.10;;;12.80;;
77276;SDS011;66330;52.166;9.978;2023-03-21T06:30:55;18.40;;;14.00;;
77276;SDS011;66330;52.166;9.978;2023-03-21T06:33:21;16.83;;;11.53;;
77276;SDS011;66330;52.166;9.978;2023-03-21T06:35:53;14.10;;;11.30;;
77276;SDS011;66330;52.166;9.978;2023-03-21T06:38:20;14.73;;;11.80;;
77276;SDS011;66330;52.166;9.978;2023-03-21T06:40:46;12.70;;;10.47;;
77276;SDS011;66330;52.166;9.978;2023-03-21T06:43:13;12.00;;;10.90;;
77276;SDS011;66330;52.166;9.978;2023-03-21T06:45:40;14.20;;;12.70;;
77276;SDS011;66330;52.166;9.978;2023-03-21T06:48:05;15.33;;;11.43;;
77276;SDS011;66330;52.166;9.978;2023-03-21T06:50:31;14.23;;;11.30;;
77276;SDS011;66330;52.166;9.978;2023-03-21T06:52:56;14.33;;;11.17;;
77276;SDS011;66330;52.166;9.978;2023-03-21T06:55:23;14.53;;;10.93;;
77276;SDS011;66330;52.166;9.978;2023-03-21T06:57:54;13.63;;;10.83;;
77276;SDS011;66330;52.166;9.978;2023-03-21T07:00:21;13.80;;;11.60;;
77276;SDS011;66330;52.166;9.978;2023-03-21T07:02:47;18.13;;;12.00;;
77276;SDS011;66330;52.166;9.978;2023-03-21T07:05:13;15.70;;;11.17;;
77276;SDS011;66330;52.166;9.978;2023-03-21T07:07:39;14.87;;;10.43;;
77276;SDS011;66330;52.166;9.978;2023-03-21T07:10:05;14.57;;;10.43;;
77276;SDS011;66330;52.166;9.978;2023-03-21T07:12:32;12.83;;;10.57;;
77276;SDS011;66330;52.166;9.978;2023-03-21T07:15:00;13.80;;;10.60;;
77276;SDS011;66330;52.166;9.978;2023-03-21T07:17:26;14.87;;;11.57;;
77276;SDS011;66330;52.166;9.978;2023-03-21T07:19:52;13.50;;;11.10;;
77276;SDS011;66330;52.166;9.978;2023-03-21T07:22:18;12.93;;;9.83;;
77276;SDS011;66330;52.166;9.978;2023-03-21T07:24:43;14.87;;;12.60;;
77276;SDS011;66330;52.166;9.978;2023-03-21T07:27:12;11.57;;;10.43;;
77276;SDS011;66330;52.166;9.978;2023-03-21T07:29:38;18.20;;;10.57;;
77276;SDS011;66330;52.166;9.978;2023-03-21T07:32:03;12.13;;;9.87;;
77276;SDS011;66330;52.166;9.978;2023-03-21T07:34:29;13.93;;;10.80;;
77276;SDS011;66330;52.166;9.978;2023-03-21T07:36:57;14.37;;;10.97;;
77276;SDS011;66330;52.166;9.978;2023-03-21T07:39:24;19.83;;;10.80;;
77276;SDS011;66330;52.166;9.978;2023-03-21T07:41:51;11.47;;;10.20;;
77276;SDS011;66330;52.166;9.978;2023-03-21T07:44:19;13.53;;;9.77;;
77276;SDS011;66330;52.166;9.978;2023-03-21T07:46:46;11.80;;;10.57;;
77276;SDS011;66330;52.166;9.978;2023-03-21T07:49:11;14.93;;;10.30;;
77276;SDS011;66330;52.166;9.978;2023-03-21T07:51:37;12.47;;;9.17;;
77276;SDS011;66330;52.166;9.978;2023-03-21T07:54:02;13.07;;;11.07;;
77276;SDS011;66330;52.166;9.978;2023-03-21T07:56:28;14.13;;;10.37;;
77276;SDS011;66330;52.166;9.978;2023-03-21T07:58:54;13.17;;;10.23;;
77276;SDS011;66330;52.166;9.978;2023-03-21T08:01:19;11.00;;;9.80;;
77276;SDS011;66330;52.166;9.978;2023-03-21T08:03:46;10.83;;;9.47;;
77276;SDS011;66330;52.166;9.978;2023-03-21T08:06:12;12.30;;;9.63;;
77276;SDS011;66330;52.166;9.978;2023-03-21T08:08:38;12.63;;;10.00;;
77276;SDS011;66330;52.166;9.978;2023-03-21T08:11:04;12.50;;;9.13;;
77276;SDS011;66330;52.166;9.978;2023-03-21T08:13:30;10.60;;;9.20;;
77276;SDS011;66330;52.166;9.978;2023-03-21T08:15:56;11.70;;;9.07;;
77276;SDS011;66330;52.166;9.978;2023-03-21T08:18:22;11.73;;;9.70;;
77276;SDS011;66330;52.166;9.978;2023-03-21T08:20:51;11.07;;;9.10;;
77276;SDS011;66330;52.166;9.978;2023-03-21T08:23:18;9.33;;;8.37;;
77276;SDS011;66330;52.166;9.978;2023-03-21T08:25:44;11.43;;;9.73;;
77276;SDS011;66330;52.166;9.978;2023-03-21T08:28:10;10.50;;;9.20;;
77276;SDS011;66330;52.166;9.978;2023-03-21T08:30:36;12.10;;;9.37;;
77276;SDS011;66330;52.166;9.978;2023-03-21T08:33:02;11.00;;;9.17;;
77276;SDS011;66330;52.166;9.978;2023-03-21T08:35:29;15.60;;;9.87;;
77276;SDS011;66330;52.166;9.978;2023-03-21T08:37:55;9.77;;;8.57;;
77276;SDS011;66330;52.166;9.978;2023-03-21T08:40:21;16.00;;;9.60;;
77276;SDS011;66330;52.166;9.978;2023-03-21T08:42:47;12.97;;;9.00;;
77276;SDS011;66330;52.166;9.978;2023-03-21T08:45:13;9.27;;;8.00;;
77276;SDS011;66330;52.166;9.978;2023-03-21T08:47:40;11.83;;;8.53;;
77276;SDS011;66330;52.166;9.978;2023-03-21T08:50:06;11.73;;;9.00;;
77276;SDS011;66330;52.166;9.978;2023-03-21T08:52:33;10.60;;;8.30;;
77276;SDS011;66330;52.166;9.978;2023-03-21T08:54:59;13.83;;;8.83;;
77276;SDS011;66330;52.166;9.978;2023-03-21T08:57:26;11.87;;;9.37;;
77276;SDS011;66330;52.166;9.978;2023-03-21T08:59:52;10.10;;;9.10;;
77276;SDS011;66330;52.166;9.978;2023-03-21T09:02:18;10.60;;;8.50;;
77276;SDS011;66330;52.166;9.978;2023-03-21T09:04:43;14.20;;;10.60;;
77276;SDS011;66330;52.166;9.978;2023-03-21T09:07:09;10.53;;;8.87;;
77276;SDS011;66330;52.166;9.978;2023-03-21T09:09:39;14.77;;;9.80;;
77276;SDS011;66330;52.166;9.978;2023-03-21T09:12:05;11.90;;;9.53;;
77276;SDS011;66330;52.166;9.978;2023-03-21T09:14:31;11.77;;;10.43;;
77276;SDS011;66330;52.166;9.978;2023-03-21T09:16:57;11.23;;;9.77;;
77276;SDS011;66330;52.166;9.978;2023-03-21T09:19:22;14.33;;;9.23;;
77276;SDS011;66330;52.166;9.978;2023-03-21T09:21:49;11.47;;;9.13;;
77276;SDS011;66330;52.166;9.978;2023-03-21T09:24:16;11.93;;;9.70;;
77276;SDS011;66330;52.166;9.978;2023-03-21T09:26:42;12.30;;;9.13;;
77276;SDS011;66330;52.166;9.978;2023-03-21T09:29:08;10.97;;;9.37;;
77276;SDS011;66330;52.166;9.978;2023-03-21T09:31:34;10.00;;;8.60;;
77276;SDS011;66330;52.166;9.978;2023-03-21T09:34:00;12.23;;;9.63;;
77276;SDS011;66330;52.166;9.978;2023-03-21T09:36:25;9.20;;;8.23;;
77276;SDS011;66330;52.166;9.978;2023-03-21T09:38:51;11.80;;;8.87;;
77276;SDS011;66330;52.166;9.978;2023-03-21T09:47:08;10.83;;;9.03;;
77276;SDS011;66330;52.166;9.978;2023-03-21T09:49:53;10.30;;;8.47;;
77276;SDS011;66330;52.166;9.978;2023-03-21T09:52:31;11.33;;;8.40;;
77276;SDS011;66330;52.166;9.978;2023-03-21T09:55:12;11.70;;;8.90;;
77276;SDS011;66330;52.166;9.978;2023-03-21T09:58:04;11.00;;;8.97;;
77276;SDS011;66330;52.166;9.978;2023-03-21T10:00:34;14.30;;;9.33;;
77276;SDS011;66330;52.166;9.978;2023-03-21T10:03:23;10.13;;;8.07;;
77276;SDS011;66330;52.166;9.978;2023-03-21T10:05:53;13.20;;;8.70;;
77276;SDS011;66330;52.166;9.978;2023-03-21T10:08:27;9.97;;;7.63;;
77276;SDS011;66330;52.166;9.978;2023-03-21T10:11:14;12.03;;;8.70;;
77276;SDS011;66330;52.166;9.978;2023-03-21T10:13:55;9.20;;;7.90;;
77276;SDS011;66330;52.166;9.978;2023-03-21T10:16:28;12.10;;;8.63;;
77276;SDS011;66330;52.166;9.978;2023-03-21T10:18:57;9.57;;;8.10;;
77276;SDS011;66330;52.166;9.978;2023-03-21T10:21:27;9.40;;;7.67;;
77276;SDS011;66330;52.166;9.978;2023-03-21T10:23:54;13.67;;;8.27;;
77276;SDS011;66330;52.166;9.978;2023-03-21T10:26:21;10.83;;;8.30;;
77276;SDS011;66330;52.166;9.978;2023-03-21T10:28:51;10.97;;;8.30;;
77276;SDS011;66330;52.166;9.978;2023-03-21T10:31:20;11.30;;;7.97;;
77276;SDS011;66330;52.166;9.978;2023-03-21T10:33:50;8.63;;;7.73;;
77276;SDS011;66330;52.166;9.978;2023-03-21T10:36:22;10.20;;;8.23;;
77276;SDS011;66330;52.166;9.978;2023-03-21T10:41:22;9.40;;;7.97;;
77276;SDS011;66330;52.166;9.978;2023-03-21T10:44:03;13.97;;;8.40;;
77276;SDS011;66330;52.166;9.978;2023-03-21T10:46:30;11.27;;;7.07;;
77276;SDS011;66330;52.166;9.978;2023-03-21T10:48:57;12.50;;;8.00;;
77276;SDS011;66330;52.166;9.978;2023-03-21T10:51:26;10.53;;;7.23;;
77276;SDS011;66330;52.166;9.978;2023-03-21T10:54:00;9.83;;;7.80;;
77276;SDS011;66330;52.166;9.978;2023-03-21T10:56:31;10.40;;;8.83;;
77276;SDS011;66330;52.166;9.978;2023-03-21T10:59:01;8.50;;;7.60;;
77276;SDS011;66330;52.166;9.978;2023-03-21T11:01:36;10.93;;;8.00;;
77276;SDS011;66330;52.166;9.978;2023-03-21T11:04:18;12.03;;;7.90;;
77276;SDS011;66330;52.166;9.978;2023-03-21T11:06:51;9.40;;;7.90;;
77276;SDS011;66330;52.166;9.978;2023-03-21T11:09:26;11.10;;;7.60;;
77276;SDS011;66330;52.166;9.978;2023-03-21T11:12:15;11.40;;;8.07;;
77276;SDS011;66330;52.166;9.978;2023-03-21T11:14:44;11.27;;;9.50;;
77276;SDS011;66330;52.166;9.978;2023-03-21T11:19:49;9.00;;;8.10;;
77276;SDS011;66330;52.166;9.978;2023-03-21T11:22:17;9.27;;;8.17;;
77276;SDS011;66330;52.166;9.978;2023-03-21T11:24:51;10.47;;;7.73;;
77276;SDS011;66330;52.166;9.978;2023-03-21T11:27:20;9.70;;;7.97;;
77276;SDS011;66330;52.166;9.978;2023-03-21T11:29:47;9.03;;;7.73;;
77276;SDS011;66330;52.166;9.978;2023-03-21T11:34:49;11.57;;;8.70;;
77276;SDS011;66330;52.166;9.978;2023-03-21T11:37:32;12.43;;;9.23;;
77276;SDS011;66330;52.166;9.978;2023-03-21T11:42:39;9.23;;;8.23;;
77276;SDS011;66330;52.166;9.978;2023-03-21T11:45:25;11.80;;;9.40;;
77276;SDS011;66330;52.166;9.978;2023-03-21T11:47:52;10.50;;;9.40;;
77276;SDS011;66330;52.166;9.978;2023-03-21T11:53:04;12.90;;;9.13;;
77276;SDS011;66330;52.166;9.978;2023-03-21T11:56:03;10.60;;;9.50;;
77276;SDS011;66330;52.166;9.978;2023-03-21T12:03:46;15.27;;;10.93;;
77276;SDS011;66330;52.166;9.978;2023-03-21T12:06:31;14.87;;;10.70;;
77276;SDS011;66330;52.166;9.978;2023-03-21T12:09:01;13.90;;;10.27;;
77276;SDS011;66330;52.166;9.978;2023-03-21T12:11:43;12.43;;;11.13;;
77276;SDS011;66330;52.166;9.978;2023-03-21T12:14:34;15.27;;;10.67;;
77276;SDS011;66330;52.166;9.978;2023-03-21T12:17:29;12.80;;;10.87;;
77276;SDS011;66330;52.166;9.978;2023-03-21T12:20:09;13.37;;;11.67;;
77276;SDS011;66330;52.166;9.978;2023-03-21T12:39:46;14.50;;;12.40;;
77276;SDS011;66330;52.166;9.978;2023-03-21T12:45:14;18.10;;;13.50;;
77276;SDS011;66330;52.166;9.978;2023-03-21T12:48:45;13.57;;;12.17;;
77276;SDS011;66330;52.166;9.978;2023-03-21T12:50:57;14.40;;;12.53;;
77276;SDS011;66330;52.166;9.978;2023-03-21T12:53:28;15.47;;;12.80;;
77276;SDS011;66330;52.166;9.978;2023-03-21T12:56:00;16.00;;;13.37;;
77276;SDS011;66330;52.166;9.978;2023-03-21T12:58:33;14.93;;;12.60;;
77276;SDS011;66330;52.166;9.978;2023-03-21T13:01:09;15.00;;;13.03;;
77276;SDS011;66330;52.166;9.978;2023-03-21T13:03:41;16.17;;;14.10;;
77276;SDS011;66330;52.166;9.978;2023-03-21T13:06:16;20.43;;;13.00;;
77276;SDS011;66330;52.166;9.978;2023-03-21T13:08:59;15.87;;;14.00;;
77276;SDS011;66330;52.166;9.978;2023-03-21T13:11:34;15.83;;;13.53;;
77276;SDS011;66330;52.166;9.978;2023-03-21T13:14:07;15.07;;;12.87;;
77276;SDS011;66330;52.166;9.978;2023-03-21T13:16:50;15.80;;;13.40;;
77276;SDS011;66330;52.166;9.978;2023-03-21T13:22:22;18.30;;;13.93;;
77276;SDS011;66330;52.166;9.978;2023-03-21T13:24:49;13.67;;;11.10;;
77276;SDS011;66330;52.166;9.978;2023-03-21T13:27:27;16.27;;;14.47;;
77276;SDS011;66330;52.166;9.978;2023-03-21T13:32:43;14.50;;;12.40;;
77276;SDS011;66330;52.166;9.978;2023-03-21T13:40:37;15.27;;;13.00;;
77276;SDS011;66330;52.166;9.978;2023-03-21T13:43:34;16.70;;;12.70;;
77276;SDS011;66330;52.166;9.978;2023-03-21T13:48:54;16.00;;;11.73;;
77276;SDS011;66330;52.166;9.978;2023-03-21T13:59:13;17.53;;;13.17;;
77276;SDS011;66330;52.166;9.978;2023-03-21T14:04:46;17.23;;;13.50;;
77276;SDS011;66330;52.166;9.978;2023-03-21T14:07:20;16.73;;;14.03;;
77276;SDS011;66330;52.166;9.978;2023-03-21T14:09:54;16.07;;;13.80;;
77276;SDS011;66330;52.166;9.978;2023-03-21T14:12:26;17.50;;;13.57;;
77276;SDS011;66330;52.166;9.978;2023-03-21T14:15:06;19.47;;;14.20;;
77276;SDS011;66330;52.166;9.978;2023-03-21T14:17:38;18.03;;;13.57;;
77276;SDS011;66330;52.166;9.978;2023-03-21T14:20:21;17.57;;;14.27;;
77276;SDS011;66330;52.166;9.978;2023-03-21T14:22:51;14.90;;;13.33;;
77276;SDS011;66330;52.166;9.978;2023-03-21T14:25:19;16.63;;;13.93;;
77276;SDS011;66330;52.166;9.978;2023-03-21T14:27:47;14.80;;;13.33;;
77276;SDS011;66330;52.166;9.978;2023-03-21T14:30:22;14.30;;;12.80;;
77276;SDS011;66330;52.166;9.978;2023-03-21T14:32:53;15.97;;;13.97;;
77276;SDS011;66330;52.166;9.978;2023-03-21T14:35:22;15.57;;;12.93;;
77276;SDS011;66330;52.166;9.978;2023-03-21T14:37:52;14.07;;;12.67;;
77276;SDS011;66330;52.166;9.978;2023-03-21T14:40:22;14.77;;;11.67;;
77276;SDS011;66330;52.166;9.978;2023-03-21T14:42:51;11.97;;;10.63;;
77276;SDS011;66330;52.166;9.978;2023-03-21T14:45:27;11.70;;;10.50;;
77276;SDS011;66330;52.166;9.978;2023-03-21T14:50:30;10.13;;;8.93;;
77276;SDS011;66330;52.166;9.978;2023-03-21T14:53:13;14.37;;;9.30;;
77276;SDS011;66330;52.166;9.978;2023-03-21T14:56:28;10.13;;;7.67;;
77276;SDS011;66330;52.166;9.978;2023-03-21T14:58:40;10.37;;;9.37;;
77276;SDS011;66330;52.166;9.978;2023-03-21T15:01:11;9.33;;;8.43;;
77276;SDS011;66330;52.166;9.978;2023-03-21T15:03:42;11.83;;;9.33;;
77276;SDS011;66330;52.166;9.978;2023-03-21T15:06:10;11.70;;;9.20;;
77276;SDS011;66330;52.166;9.978;2023-03-21T15:08:38;12.80;;;9.93;;
77276;SDS011;66330;52.166;9.978;2023-03-21T15:11:05;10.57;;;9.57;;
77276;SDS011;66330;52.166;9.978;2023-03-21T15:13:35;14.17;;;10.23;;
77276;SDS011;66330;52.166;9.978;2023-03-21T15:16:07;10.50;;;9.50;;
77276;SDS011;66330;52.166;9.978;2023-03-21T15:18:35;12.33;;;10.00;;
77276;SDS011;66330;52.166;9.978;2023-03-21T15:21:04;14.93;;;9.73;;
77276;SDS011;66330;52.166;9.978;2023-03-21T15:23:40;12.63;;;10.23;;
77276;SDS011;66330;52.166;9.978;2023-03-21T15:26:18;12.63;;;10.23;;
77276;SDS011;66330;52.166;9.978;2023-03-21T15:28:47;10.13;;;8.97;;
77276;SDS011;66330;52.166;9.978;2023-03-21T15:31:22;10.83;;;9.27;;
77276;SDS011;66330;52.166;9.978;2023-03-21T15:33:52;9.30;;;8.17;;
77276;SDS011;66330;52.166;9.978;2023-03-21T15:36:24;9.47;;;8.50;;
77276;SDS011;66330;52.166;9.978;2023-03-21T15:39:05;10.13;;;9.10;;
77276;SDS011;66330;52.166;9.978;2023-03-21T15:41:32;7.30;;;6.60;;
77276;SDS011;66330;52.166;9.978;2023-03-21T15:44:04;7.83;;;6.97;;
77276;SDS011;66330;52.166;9.978;2023-03-21T15:46:44;9.83;;;8.57;;
77276;SDS011;66330;52.166;9.978;2023-03-21T15:51:43;8.37;;;6.83;;
77276;SDS011;66330;52.166;9.978;2023-03-21T15:54:16;8.10;;;6.90;;
77276;SDS011;66330;52.166;9.978;2023-03-21T15:56:48;8.53;;;7.67;;
77276;SDS011;66330;52.166;9.978;2023-03-21T15:59:19;7.80;;;7.00;;
77276;SDS011;66330;52.166;9.978;2023-03-21T16:01:48;9.50;;;7.30;;
77276;SDS011;66330;52.166;9.978;2023-03-21T16:04:15;6.10;;;5.60;;
77276;SDS011;66330;52.166;9.978;2023-03-21T16:06:51;7.53;;;6.77;;
77276;SDS011;66330;52.166;9.978;2023-03-21T16:09:21;7.23;;;6.50;;
77276;SDS011;66330;52.166;9.978;2023-03-21T16:11:57;7.90;;;6.80;;
77276;SDS011;66330;52.166;9.978;2023-03-21T16:14:24;9.57;;;6.80;;
77276;SDS011;66330;52.166;9.978;2023-03-21T16:16:54;10.80;;;7.00;;
77276;SDS011;66330;52.166;9.978;2023-03-21T16:19:20;6.77;;;6.17;;
77276;SDS011;66330;52.166;9.978;2023-03-21T16:21:47;9.23;;;6.33;;
77276;SDS011;66330;52.166;9.978;2023-03-21T16:24:12;8.07;;;6.90;;
77276;SDS011;66330;52.166;9.978;2023-03-21T16:26:41;8.00;;;7.20;;